Home > Products > Valid Products > TAF

000
FTUS45 KPSR 272000 AAA
TAFPHX
TAF AMD
KPHX 272018Z 2720/2818 VRB04KT P6SM SKC
     FM272200 27008KT P6SM FEW090
     FM280900 10004KT P6SM SKC=



000
FTUS45 KPSR 271700
TAFIWA
TAF
KIWA 271720Z 2718/2818 VRB04KT P6SM SKC
     FM271900 26009KT P6SM FEW090
     FM280600 13006KT P6SM SKC=



000
FTUS45 KPSR 271700
TAFIPL
TAF
KIPL 271720Z 2718/2818 26008KT P6SM SKC=



000
FTUS45 KPSR 271700
TAFPHX
TAF
KPHX 271720Z 2718/2818 09010KT P6SM SKC
     FM272100 27008KT P6SM FEW090
     FM280900 10004KT P6SM SKC=



000
FTUS45 KPSR 271700
TAFBLH
TAF
KBLH 271720Z 2718/2818 VRB04KT P6SM SKC
     FM280300 28007KT P6SM SKC=



000
FTUS45 KPSR 271400 AAB
TAFPHX
TAF AMD
KPHX 271455Z 2715/2812 09010KT P6SM FEW090
     FM272100 27008KT P6SM SCT100
     FM280900 10004KT P6SM SKC=



000
FTUS45 KPSR 271400 AAA
TAFPHX
TAF AMD
KPHX 271450Z 2715/2812 09010KT P6SM FEW090
     FM272100 27008KT P6SM SCT100
     FM280900 10004KT P6SM SKC=



000
FTUS45 KPSR 271100
TAFIPL
TAF
KIPL 271121Z 2712/2812 27007KT P6SM SKC
     FM271400 VRB03KT P6SM SKC
     FM280200 26008KT P6SM SKC=



000
FTUS45 KPSR 271100
TAFIWA
TAF
KIWA 271121Z 2712/2812 12006KT P6SM FEW090
     FM271900 26009KT P6SM SCT100
     FM280600 13006KT P6SM SKC
      AMD LTD TO CLD VIS AND WIND TIL 271300=



000
FTUS45 KPSR 271100
TAFPHX
TAF
KPHX 271121Z 2712/2812 11005KT P6SM FEW090
     FM272100 27008KT P6SM SCT100
     FM280900 10004KT P6SM SKC=



000
FTUS45 KPSR 271100
TAFBLH
TAF
KBLH 271121Z 2712/2812 VRB04KT P6SM SKC
     FM271900 17007KT P6SM SKC
     FM280300 VRB04KT P6SM SKC=



000
FTUS45 KPSR 271100
TAFIWA
TAF
KIWA 271121Z 2712/2812 12006KT P6SM FEW090
     FM271900 26009KT P6SM SCT100
     FM280600 13006KT P6SM SKC
      AMD LTD TO CLD VIS AND WIND TIL 271300=



000
FTUS45 KPSR 270800 AAA
TAFPHX
TAF AMD
KPHX 270846Z 2709/2806 12006KT P6SM SCT100
     FM272100 26008KT P6SM SCT100
     FM280500 10005KT P6SM SKC=



000
FTUS45 KPSR 270500
TAFIPL
TAF
KIPL 270520Z 2706/2806 24008KT P6SM SCT120
     FM271000 VRB05KT P6SM SKC
     FM280200 26006KT P6SM SKC=



000
FTUS45 KPSR 270500
TAFIWA
TAF
KIWA 270520Z 2706/2806 13008KT P6SM SCT080 BKN180
     FM272000 25008KT P6SM SCT140
     FM280000 30007KT P6SM SCT140
     FM280500 14006KT P6SM FEW200
      AMD LTD TO CLD VIS AND WIND TIL 271300=



000
FTUS45 KPSR 270500
TAFPHX
TAF
KPHX 270520Z 2706/2806 13008KT P6SM SCT100 BKN200
     FM272000 26007KT P6SM SCT180
     FM280500 VRB05KT P6SM FEW200=



000
FTUS45 KPSR 270500
TAFBLH
TAF
KBLH 270520Z 2706/2806 22006KT P6SM FEW120
     FM271100 VRB04KT P6SM SKC
     FM271900 16007KT P6SM SKC
     FM280200 25006KT P6SM SKC=



000
FTUS45 KPSR 270500
TAFIWA
TAF
KIWA 270520Z 2706/2806 13008KT P6SM SCT080 BKN180
     FM272000 25008KT P6SM SCT140
     FM280000 30007KT P6SM SCT140
     FM280500 14006KT P6SM FEW200
      AMD LTD TO CLD VIS AND WIND TIL 271300=



000
FTUS45 KPSR 270300 AAB
TAFIWA
TAF AMD
KIWA 270353Z 2704/2724 13008KT P6SM SCT080 BKN100
     FM271900 30008KT P6SM SCT200
      AMD LTD TO CLD VIS AND WIND TIL 271300=



000
FTUS45 KPSR 270300 AAB
TAFIWA
TAF AMD
KIWA 270353Z 2704/2724 13008KT P6SM SCT080 BKN100
     FM271900 30008KT P6SM SCT200
      AMD LTD TO CLD VIS AND WIND TIL 271300=



000
FTUS45 KPSR 270200 AAA
TAFIPL
TAF AMD
KIPL 270252Z 2703/2724 15006KT P6SM FEW200
     FM270400 26010KT P6SM SKC
     FM271000 VRB05KT P6SM SKC=



000
FTUS45 KPSR 270200 AAA
TAFPHX
TAF AMD
KPHX 270237Z 2703/2724 11008KT P6SM SCT100 BKN200
     FM272000 26007KT P6SM FEW200=



000
FTUS45 KPSR 270000 AAA
TAFIWA
TAF AMD
KIWA 270043Z 2701/2724 01012G22KT P6SM VCSH BKN100 OVC200
     FM270400 10008KT P6SM FEW080 SCT100
     FM271900 30008KT P6SM SCT200
      AMD LTD TO CLD VIS AND WIND 2703/2713=



000
FTUS45 KPSR 270000 AAA
TAFIWA
TAF AMD
KIWA 270043Z 2701/2724 01012G22KT P6SM VCSH BKN100 OVC200
     FM270400 10008KT P6SM FEW080 SCT100
     FM271900 30008KT P6SM SCT200
      AMD LTD TO CLD VIS AND WIND 2703/2713=



000
FTUS45 KPSR 262300
TAFIWA
TAF
KIWA 262328Z 2700/2724 27007KT P6SM SCT080 BKN120
     FM270100 VRB05KT P6SM VCSH BKN100 OVC200
     FM270400 14008KT P6SM FEW080 SCT100
     FM271900 30008KT P6SM SCT200
      AMD LTD TO CLD VIS AND WIND 2703/2713=



000
FTUS45 KPSR 262300
TAFBLH
TAF
KBLH 262328Z 2700/2724 17015KT P6SM SCT080 BKN120
     FM270100 22010KT P6SM VCSH FEW200
     FM270700 VRB05KT P6SM SKC
     FM271900 17007KT P6SM SKC=



000
FTUS45 KPSR 262300
TAFIPL
TAF
KIPL 262328Z 2700/2724 13006KT P6SM FEW200
     FM270200 26010KT P6SM SKC
     FM271000 VRB05KT P6SM SKC=



000
FTUS45 KPSR 262300
TAFIWA
TAF
KIWA 262328Z 2700/2724 27007KT P6SM SCT080 BKN120
     FM270100 VRB05KT P6SM VCSH BKN100 OVC200
     FM270400 14008KT P6SM FEW080 SCT100
     FM271900 30008KT P6SM SCT200
      AMD LTD TO CLD VIS AND WIND 2703/2713=



000
FTUS45 KPSR 262300
TAFPHX
TAF
KPHX 262328Z 2700/2724 28010G16KT P6SM SCT070 SCT140
      TEMPO 2700/2702 01006KT
     FM270300 VRB06KT P6SM FEW080 BKN120
     FM270700 11008KT P6SM SCT120 BKN200
     FM272000 26007KT P6SM FEW200=



000
FTUS45 KPSR 262000 AAA
TAFPHX
TAF AMD
KPHX 262048Z 2621/2718 18007KT P6SM FEW080 FEW150 SCT200
     FM262200 24008KT P6SM SCT070 SCT120
      TEMPO 2622/2702 SCT070 BKN100
     FM270700 11008KT P6SM FEW100=



000
FTUS45 KPSR 261700
TAFBLH
TAF
KBLH 261720Z 2618/2718 18011KT P6SM FEW080 SCT150 BKN200
     FM262100 20013G19KT P6SM FEW100 SCT200
     FM270200 22010KT P6SM FEW200
     FM271000 VRB04KT P6SM SKC=



000
FTUS45 KPSR 261700
TAFIWA
TAF
KIWA 261720Z 2618/2718 VRB05KT P6SM SCT070 BKN150
     FM262000 27007KT P6SM BKN080 BKN120
     FM270300 14008KT P6SM FEW080 SCT100=



000
FTUS45 KPSR 261700
TAFPHX
TAF
KPHX 261720Z 2618/2718 15007KT P6SM SCT080 SCT150
     FM262000 24008KT P6SM SCT070 SCT120
      TEMPO 2621/2701 SCT070 BKN100
     FM270700 11008KT P6SM FEW100=



000
FTUS45 KPSR 261700
TAFIPL
TAF
KIPL 261720Z 2618/2718 13005KT P6SM FEW100 SCT200
     FM262300 25007KT P6SM FEW200
     FM271000 VRB05KT P6SM SKC=



000
FTUS45 KPSR 261700
TAFIWA
TAF
KIWA 261720Z 2618/2718 VRB05KT P6SM SCT070 BKN150
     FM262000 27007KT P6SM BKN080 BKN120
     FM270300 14008KT P6SM FEW080 SCT100=



000
FTUS45 KPSR 261400 AAA
TAFPHX
TAF AMD
KPHX 261434Z 2615/2712 09007KT P6SM FEW100 FEW160
     FM261700 15005KT P6SM VCSH SCT080 BKN100
     FM262000 24008KT P6SM SCT080 BKN100
     FM270700 11008KT P6SM FEW100=



000
FTUS45 KPSR 261100
TAFIWA
TAF
KIWA 261120Z 2612/2712 14005KT P6SM FEW080 BKN120 BKN200
     FM261400 VRB05KT P6SM VCSH SCT070 BKN090
     FM261900 27007KT P6SM BKN080
     FM270200 14007KT P6SM FEW080 SCT100
      AMD LTD TO CLD VIS AND WIND TIL 261300=



000
FTUS45 KPSR 261100
TAFIWA
TAF
KIWA 261120Z 2612/2712 14005KT P6SM FEW080 BKN120 BKN200
     FM261400 VRB05KT P6SM VCSH SCT070 BKN090
     FM261900 27007KT P6SM BKN080
     FM270200 14007KT P6SM FEW080 SCT100
      AMD LTD TO CLD VIS AND WIND TIL 261300=



000
FTUS45 KPSR 261100
TAFIPL
TAF
KIPL 261120Z 2612/2712 VRB05KT P6SM SCT200
     FM262300 25007KT P6SM FEW200
     FM271000 VRB05KT P6SM SKC=



000
FTUS45 KPSR 261100
TAFBLH
TAF
KBLH 261120Z 2612/2712 18009KT P6SM FEW100 BKN200
     FM262000 20013G19KT P6SM SCT200
     FM270100 20010KT P6SM FEW200=



000
FTUS45 KPSR 261100
TAFPHX
TAF
KPHX 261120Z 2612/2712 14006KT P6SM FEW080 SCT120 BKN200
     FM261500 15005KT P6SM VCSH SCT080 BKN100
     FM262000 24008KT P6SM SCT080 BKN100
     FM270700 11008KT P6SM FEW100=



000
FTUS45 KPSR 260900 AAC
TAFIWA
TAF AMD
KIWA 260918Z 2609/2706 14005KT P6SM SCT080 BKN100 OVC200
     FM261400 VRB05KT P6SM VCSH SCT060 BKN080
     FM261800 27007KT P6SM BKN080
      AMD LTD TO CLD VIS AND WIND TIL 261300=



000
FTUS45 KPSR 260900 AAC
TAFIWA
TAF AMD
KIWA 260918Z 2609/2706 14005KT P6SM SCT080 BKN100 OVC200
     FM261400 VRB05KT P6SM VCSH SCT060 BKN080
     FM261800 27007KT P6SM BKN080
      AMD LTD TO CLD VIS AND WIND TIL 261300=



000
FTUS45 KPSR 260900 AAC
TAFPHX
TAF AMD
KPHX 260918Z 2609/2706 12004KT P6SM SCT080 BKN100 OVC200
     FM261500 VRB05KT P6SM VCSH SCT080 BKN100
     FM261900 24008KT P6SM BKN080=



000
FTUS45 KPSR 260800 AAB
TAFPHX
TAF AMD
KPHX 260809Z 2608/2706 12004KT P6SM SCT080 BKN100 OVC200
     FM261200 31005KT P6SM -SHRA VCTS SCT070CB OVC100
     FM261500 VRB05KT P6SM SCT060 BKN090
     FM262000 24008KT P6SM BKN080=



000
FTUS45 KPSR 260800 AAA
TAFIPL
TAF AMD
KIPL 260809Z 2608/2706 VRB05KT P6SM SCT200
     FM262300 25007KT P6SM SCT200=



000
FTUS45 KPSR 260700 AAB
TAFIWA
TAF AMD
KIWA 260731Z 2608/2706 10005KT P6SM SCT080 BKN100 OVC200
     FM261000 15005KT P6SM -SHRA VCTS SCT060CB OVC100
     FM261400 VRB05KT P6SM SCT060 BKN070
     FM261900 27007KT P6SM BKN080
      AMD LTD TO CLD VIS AND WIND TIL 261300=



000
FTUS45 KPSR 260700 AAA
TAFBLH
TAF AMD
KBLH 260700Z 2607/2706 20011KT P6SM FEW100 SCT200=



000
FTUS45 KPSR 260600 AAA
TAFIWA
TAF AMD
KIWA 260624Z 2606/2706 26005KT P6SM SCT080 BKN100 OVC200
     FM261000 15005KT P6SM -SHRA VCTS SCT060CB OVC100
     FM261400 VRB05KT P6SM SCT060 BKN070
     FM261900 27007KT P6SM BKN080
      AMD LTD TO CLD VIS AND WIND TIL 261300=



000
FTUS45 KPSR 260600 AAA
TAFIWA
TAF AMD
KIWA 260624Z 2606/2706 26005KT P6SM SCT080 BKN100 OVC200
     FM261000 15005KT P6SM -SHRA VCTS SCT060CB OVC100
     FM261400 VRB05KT P6SM SCT060 BKN070
     FM261900 27007KT P6SM BKN080
      AMD LTD TO CLD VIS AND WIND TIL 261300=



000
FTUS45 KPSR 260600 AAA
TAFPHX
TAF AMD
KPHX 260622Z 2606/2706 22004KT P6SM SCT080 BKN100 OVC200
     FM261000 31005KT P6SM -SHRA VCTS SCT070CB OVC100
     FM261500 VRB05KT P6SM SCT060 BKN090
     FM262000 24008KT P6SM BKN080=



000
FTUS45 KPSR 260500
TAFBLH
TAF
KBLH 260529Z 2606/2706 22009KT P6SM SCT250
     FM261200 18005KT P6SM FEW100
     FM261800 20012KT P6SM FEW100 SCT250=



000
FTUS45 KPSR 260500
TAFPHX
TAF
KPHX 260529Z 2606/2706 23012KT P6SM VCTS SCT080CB BKN200
      TEMPO 2606/2610 VRB15G25KT SHRA SCT060 BKN080
     FM261000 11008KT P6SM -SHRA VCTS SCT060CB OVC100
     FM262000 24008KT P6SM BKN080=



000
FTUS45 KPSR 260500
TAFIWA
TAF
KIWA 260529Z 2606/2706 21012KT P6SM VCTS SCT080CB BKN200
      TEMPO 2606/2610 VRB15G25KT SHRA SCT060 BKN080
     FM261000 11008KT P6SM -SHRA VCTS SCT060CB OVC100
     FM262000 24008KT P6SM BKN080
      AMD LTD TO CLD VIS AND WIND TIL 261300=



000
FTUS45 KPSR 260500
TAFIPL
TAF
KIPL 260529Z 2606/2706 26008KT P6SM SCT200
     FM261500 15005KT P6SM SCT200
     FM262300 25007KT P6SM SCT200=



000
FTUS45 KPSR 260300 AAD
TAFIWA
TAF AMD
KIWA 260358Z 2604/2624 18012KT P6SM VCTS SCT090CB BKN140
      TEMPO 2604/2608 18015G25KT SHRA BKN090
     FM261000 11008KT P6SM -SHRA VCTS SCT060CB OVC100
     FM262000 24008KT P6SM BKN080
      AMD LTD TO CLD VIS AND WIND 2603/2613=



000
FTUS45 KPSR 260300 AAD
TAFIWA
TAF AMD
KIWA 260358Z 2604/2624 18012KT P6SM VCTS SCT090CB BKN140
      TEMPO 2604/2608 18015G25KT SHRA BKN090
     FM261000 11008KT P6SM -SHRA VCTS SCT060CB OVC100
     FM262000 24008KT P6SM BKN080
      AMD LTD TO CLD VIS AND WIND 2603/2613=



000
FTUS45 KPSR 260300 AAB
TAFPHX
TAF AMD
KPHX 260357Z 2604/2624 29008KT P6SM VCTS SCT090CB BKN200
      TEMPO 2604/2608 19014G20KT SHRA SCT060 BKN090
     FM261000 11008KT P6SM -SHRA VCTS SCT060CB OVC100
     FM262000 24008KT P6SM BKN080=



000
FTUS45 KPSR 260300 AAC
TAFIWA
TAF AMD
KIWA 260352Z 2604/2624 18012KT P6SM SCT090 BKN140
      TEMPO 2604/2607 18015G25KT BKN090
     FM261000 11008KT P6SM -SHRA VCTS SCT060CB OVC100
     FM262000 24008KT P6SM BKN080
      AMD LTD TO CLD VIS AND WIND 2603/2613=



000
FTUS45 KPSR 260300 AAC
TAFIWA
TAF AMD
KIWA 260352Z 2604/2624 18012KT P6SM SCT090 BKN140
      TEMPO 2604/2607 18015G25KT BKN090
     FM261000 11008KT P6SM -SHRA VCTS SCT060CB OVC100
     FM262000 24008KT P6SM BKN080
      AMD LTD TO CLD VIS AND WIND 2603/2613=



000
FTUS45 KPSR 260300 AAA
TAFBLH
TAF AMD
KBLH 260305Z 2603/2624 20009KT P6SM SCT250
     FM261200 18005KT P6SM FEW100
     FM261800 20012KT P6SM FEW100 SCT250=



000
FTUS45 KPSR 260300 AAA
TAFPHX
TAF AMD
KPHX 260304Z 2603/2624 29008KT P6SM FEW090 BKN200
      TEMPO 2603/2605 32014G20KT
     FM260700 14008KT P6SM SCT090
     FM261000 11008KT P6SM -SHRA VCTS SCT060CB OVC100
     FM262000 24008KT P6SM BKN080=



000
FTUS45 KPSR 260200 AAB
TAFIWA
TAF AMD
KIWA 260211Z 2602/2624 VRB05KT P6SM SCT090 BKN250
     FM261000 11008KT P6SM -SHRA VCTS SCT060CB OVC100
     FM262000 24008KT P6SM BKN080
      AMD LTD TO CLD VIS AND WIND 2603/2613=



000
FTUS45 KPSR 260200 AAB
TAFIWA
TAF AMD
KIWA 260211Z 2602/2624 VRB05KT P6SM SCT090 BKN250
     FM261000 11008KT P6SM -SHRA VCTS SCT060CB OVC100
     FM262000 24008KT P6SM BKN080
      AMD LTD TO CLD VIS AND WIND 2603/2613=



000
FTUS45 KPSR 260000 AAA
TAFIWA
TAF AMD
KIWA 260023Z 2600/2624 26007KT P6SM FEW090 BKN200
     FM260200 14010KT P6SM VCTS SCT090CB
      TEMPO 2602/2604 14012G22KT P6SM BKN080CB
     FM261000 11008KT P6SM -SHRA VCTS SCT060CB OVC100
     FM262000 24008KT P6SM BKN080
      AMD LTD TO CLD VIS AND WIND 2603/2613=



000
FTUS45 KPSR 260000 AAA
TAFIWA
TAF AMD
KIWA 260023Z 2600/2624 26007KT P6SM FEW090 BKN200
     FM260200 14010KT P6SM VCTS SCT090CB
      TEMPO 2602/2604 14012G22KT P6SM BKN080CB
     FM261000 11008KT P6SM -SHRA VCTS SCT060CB OVC100
     FM262000 24008KT P6SM BKN080
      AMD LTD TO CLD VIS AND WIND 2603/2613=



000
FTUS45 KPSR 252300
TAFPHX
TAF
KPHX 252321Z 2600/2624 26007KT P6SM FEW090 BKN200
     FM260400 VRB05KT P6SM SCT090 BKN200
     FM260700 14008KT P6SM SCT090
     FM261000 11008KT P6SM -SHRA VCTS SCT060CB OVC100
     FM262000 24008KT P6SM BKN080=



000
FTUS45 KPSR 252300
TAFIWA
TAF
KIWA 252321Z 2600/2624 26007KT P6SM FEW090 BKN200
     FM260200 14008KT P6SM SCT090
     FM261000 11008KT P6SM -SHRA VCTS SCT060CB OVC100
     FM262000 24008KT P6SM BKN080
      AMD LTD TO CLD VIS AND WIND 2603/2613=



000
FTUS45 KPSR 252300
TAFBLH
TAF
KBLH 252321Z 2600/2624 25015G25KT P6SM BKN200
     FM260800 20012KT P6SM SCT250
     FM261200 18005KT P6SM FEW100
     FM261800 20012KT P6SM FEW100 SCT250=



000
FTUS45 KPSR 252300
TAFIPL
TAF
KIPL 252321Z 2600/2624 25008KT P6SM SCT200
     FM261500 15005KT P6SM SCT200=



000
FTUS45 KPSR 252300
TAFIWA
TAF
KIWA 252321Z 2600/2624 26007KT P6SM FEW090 BKN200
     FM260200 14008KT P6SM SCT090
     FM261000 11008KT P6SM -SHRA VCTS SCT060CB OVC100
     FM262000 24008KT P6SM BKN080
      AMD LTD TO CLD VIS AND WIND 2603/2613=



000
FTUS45 KPSR 252100 AAA
TAFBLH
TAF AMD
KBLH 252105Z 2521/2618 17015G25KT P6SM FEW030 BKN200
     FM260800 19010KT P6SM SCT250
     FM261200 18008KT P6SM FEW100 BKN200=



000
FTUS45 KPSR 252000 AAA
TAFPHX
TAF AMD
KPHX 252042Z 2521/2618 VRB04KT P6SM FEW120 BKN250
     FM252200 26008KT P6SM FEW090 BKN200
     FM260300 14011KT P6SM SCT100 BKN200
     FM261000 11008KT P6SM -SHRA VCTS SCT060CB OVC100=



000
FTUS45 KPSR 251700
TAFIWA
TAF
KIWA 251727Z 2518/2618 16006KT P6SM FEW100 BKN200
     FM252000 25006KT P6SM FEW090 BKN200
     FM260200 15012KT P6SM VCTS SCT100CB BKN200
     FM260900 12006KT P6SM -SHRA VCTS SCT060CB OVC100=



000
FTUS45 KPSR 251700
TAFBLH
TAF
KBLH 251727Z 2518/2618 19015G25KT P6SM FEW030 BKN200
     FM260800 19010KT P6SM SCT250
     FM261200 18008KT P6SM FEW100 BKN200=



000
FTUS45 KPSR 251700
TAFIPL
TAF
KIPL 251727Z 2518/2618 15008KT P6SM SCT200
     FM260200 24007KT P6SM SCT250
     FM261500 15005KT P6SM BKN200=



000
FTUS45 KPSR 251700
TAFPHX
TAF
KPHX 251727Z 2518/2618 16006KT P6SM FEW120 BKN250
     FM252000 26008KT P6SM FEW090 BKN200
     FM260300 14011KT P6SM SCT100 BKN200
     FM261000 11008KT P6SM -SHRA VCTS SCT060CB OVC100=



000
FTUS45 KPSR 251400 AAA
TAFPHX
TAF AMD
KPHX 251433Z 2515/2612 11006KT P6SM FEW120 BKN250
     FM252000 26006KT P6SM FEW090 BKN200
     FM260300 14011KT P6SM SCT100 BKN200
     FM261000 12006KT P6SM VCSH FEW060 SCT080 BKN100=



000
FTUS45 KPSR 251100
TAFIPL
TAF
KIPL 251123Z 2512/2612 15006KT P6SM BKN200
     FM260200 24007KT P6SM SCT250=



000
FTUS45 KPSR 251100
TAFBLH
TAF
KBLH 251123Z 2512/2612 18008KT P6SM BKN200
     FM251800 20012G22KT P6SM BKN200
     FM260200 19012KT P6SM SCT250=



000
FTUS45 KPSR 251100
TAFIWA
TAF
KIWA 251123Z 2512/2612 14006KT P6SM BKN200
     FM252000 25006KT P6SM FEW090 BKN200
     FM260200 15011KT P6SM SCT100 BKN200
     FM260900 12006KT P6SM VCSH FEW060 SCT080 BKN100
      AMD LTD TO CLD VIS AND WIND TIL 251300=



000
FTUS45 KPSR 251100
TAFIWA
TAF
KIWA 251123Z 2512/2612 14006KT P6SM BKN200
     FM252000 25006KT P6SM FEW090 BKN200
     FM260200 15011KT P6SM SCT100 BKN200
     FM260900 12006KT P6SM VCSH FEW060 SCT080 BKN100
      AMD LTD TO CLD VIS AND WIND TIL 251300=



000
FTUS45 KPSR 251100
TAFPHX
TAF
KPHX 251123Z 2512/2612 34006KT P6SM BKN200
     FM251300 12006KT P6SM BKN200
     FM252000 26006KT P6SM FEW090 BKN200
     FM260300 14011KT P6SM SCT100 BKN200
     FM261000 12006KT P6SM VCSH FEW060 SCT080 BKN100=



000
FTUS45 KPSR 250800 AAA
TAFPHX
TAF AMD
KPHX 250812Z 2508/2606 32006KT P6SM FEW090 SCT250
     FM251200 12006KT P6SM BKN250
     FM252000 27006KT P6SM FEW090 BKN250
     FM260300 15008KT P6SM BKN100 BKN200=



000
FTUS45 KPSR 250500
TAFIPL
TAF
KIPL 250521Z 2506/2606 29006KT P6SM BKN250
     FM251500 15006KT P6SM BKN250
     FM260200 27007KT P6SM FEW100 SCT250=



000
FTUS45 KPSR 250500
TAFBLH
TAF
KBLH 250521Z 2506/2606 20008KT P6SM BKN250
     FM251800 20012G22KT P6SM BKN250=



000
FTUS45 KPSR 250500
TAFIWA
TAF
KIWA 250521Z 2506/2606 VRB05KT P6SM BKN250
     FM250800 15006KT P6SM BKN250
     FM252000 27006KT P6SM FEW090 BKN250
     FM260300 15006KT P6SM BKN100 BKN200
      AMD LTD TO CLD VIS AND WIND TIL 251300=



000
FTUS45 KPSR 250500
TAFPHX
TAF
KPHX 250521Z 2506/2606 25004KT P6SM FEW090 SCT250
     FM250700 VRB05KT P6SM BKN250
     FM251200 16006KT P6SM BKN250
     FM252000 27006KT P6SM FEW090 BKN250
     FM260300 15006KT P6SM BKN100 BKN200=



000
FTUS45 KPSR 250500
TAFIWA
TAF
KIWA 250521Z 2506/2606 VRB05KT P6SM BKN250
     FM250800 15006KT P6SM BKN250
     FM252000 27006KT P6SM FEW090 BKN250
     FM260300 15006KT P6SM BKN100 BKN200
      AMD LTD TO CLD VIS AND WIND TIL 251300=



000
FTUS45 KPSR 250300 AAA
TAFPHX
TAF AMD
KPHX 250303Z 2503/2524 25008KT P6SM FEW090 SCT250
     FM250700 VRB05KT P6SM BKN250
     FM251200 16006KT P6SM BKN250
     FM252000 27006KT P6SM FEW090 BKN250=



000
FTUS45 KPSR 242300
TAFIPL
TAF
KIPL 242321Z 2500/2524 12005KT P6SM BKN250
     FM250100 29006KT P6SM BKN250
     FM251500 15006KT P6SM BKN250=



000
FTUS45 KPSR 242300
TAFBLH
TAF
KBLH 242321Z 2500/2524 21012KT P6SM BKN250
     FM250100 20008KT P6SM BKN250
     FM251800 20010G18KT P6SM BKN250=



000
FTUS45 KPSR 242300
TAFIWA
TAF
KIWA 242321Z 2500/2524 25005KT P6SM FEW090 SCT250
     FM250600 VRB05KT P6SM BKN250
     FM251000 15006KT P6SM BKN250
     FM252000 27006KT P6SM FEW090 BKN250
      AMD LTD TO CLD VIS AND WIND 2503/2513=



000
FTUS45 KPSR 242300
TAFPHX
TAF
KPHX 242321Z 2500/2524 25006KT P6SM FEW090 SCT250
     FM250600 VRB05KT P6SM BKN250
     FM251200 16006KT P6SM BKN250
     FM252000 27006KT P6SM FEW090 BKN250=



000
FTUS45 KPSR 242300
TAFIWA
TAF
KIWA 242321Z 2500/2524 25005KT P6SM FEW090 SCT250
     FM250600 VRB05KT P6SM BKN250
     FM251000 15006KT P6SM BKN250
     FM252000 27006KT P6SM FEW090 BKN250
      AMD LTD TO CLD VIS AND WIND 2503/2513=



    US Dept of Commerce
    National Oceanic and Atmospheric Administration
    National Weather Service
    1325 East West Highway
    Silver Spring, MD 20910
    Page Author: NWS Internet Services Team
Disclaimer
Information Quality
Credits
Glossary
Privacy Policy
Freedom of Information Act (FOIA)
About Us
Career Opportunities